Terminal Aerodrome Forecast
Issued by NWS

Current Version | Previous Version | Graphics & Text | Print | Product List | Glossary On
Versions: 1 2 3 4 5 6 7 8 9 10 11 12 13 14 15 16 17 18 19 20 21
000
FTUS41 KRLX 192346
TAFCKB
TAF
KCKB 192346Z 2000/2024 24003KT P6SM BKN020
      TEMPO 2000/2002 SCT020
     FM200500 00000KT 4SM BR BKN015
     FM200800 00000KT 2SM BR SCT001 BKN015
     FM201000 00000KT 1/2SM FG VV001
     FM201300 00000KT 1SM BR BKN001 BKN020
     FM201430 00000KT P6SM BKN020
     FM201600 VRB03KT P6SM SCT030
     FM202100 04004KT P6SM FEW200=

USA.gov is the U.S. government's official web portal to all federal, state and local government web resources and services.